Página principal
METAR-TAF:

METAR-TAF

Aeroportos :

Cordova, Alasca, Estados Unidos

latitude: 60-29-30N, longitude: 145-28-40W, altura: 13 m

Observação actual do tempo

O boletim foi feito há 32 minutos, às 00:53 UTC
Vento 7 kt de oes-sudoeste
Temperatura 14°C
Humidade 77%
Pressão 1018 hPa
Visibilidade: 16.1 km
Encobertoa uma altura de 900 ft

METAR: PACV 180053Z 24007KT 10SM OVC009 14/10 A3007 RMK AO2 SLP182 T01440100 $

Hora: 17:25 (01:25 UTC)

Previsão

O boletim foi feito há 1 hora e 40 minutos, às 23:45 UTC
Previsão válida de 18 às 00 UTC a 18 às 24 UTC
Vento 7 kt de sudoeste
Visibilidade: 10 km
Nuvens fragmentadasa uma altura de 1000 ft
A partir de 18 às 1200 UTC
Vento 3 kt com direcção variável
Visibilidade: 8.0 km
Encobertoa uma altura de 600 ft
neblina,

TAF: PACV 172345Z 1800/1824 22007KT P6SM BKN010 FM181200 VRB03KT 5SM BR OVC006

Observações e previsões do tempo de mais de 4000 aeroportos (mensagens METAR e TAF).

As estações disponíveis são os pontos amarelos e vermelhos sobre o mapa.

Mova o rato sobre o mapa para ver o nome da estação.

Depois clique no ponto para visualizar as observações e previsões meteorológicas.

Para alterar o mapa : clique nos botões verdes com uma cruz preta para aumentar o zoom; no botão verde com uma pitada de zoom; ou nas setas verdes para mapas adjacentes.


METAR-TAF: